createdAt,value
2023-03-30T00:01:28.461Z,10.14
2023-03-30T00:07:30.608Z,10.18
2023-03-30T00:13:35.018Z,10.27
2023-03-30T00:19:38.824Z,10.44
2023-03-30T00:25:43.175Z,10.20
2023-03-30T00:31:45.128Z,10.22
2023-03-30T00:37:49.637Z,10.01
2023-03-30T00:44:05.806Z,9.95
2023-03-30T00:50:09.801Z,9.96
2023-03-30T00:56:16.536Z,9.91
2023-03-30T01:02:21.533Z,9.89
2023-03-30T01:08:27.142Z,9.85
2023-03-30T01:14:29.258Z,9.86
2023-03-30T01:21:07.632Z,9.73
2023-03-30T01:27:46.100Z,9.65
2023-03-30T01:34:10.494Z,9.47
2023-03-30T01:40:24.867Z,9.44
2023-03-30T01:46:37.816Z,9.45
2023-03-30T01:53:00.635Z,9.26
2023-03-30T01:59:27.272Z,9.27
2023-03-30T02:05:32.811Z,9.21
2023-03-30T02:11:37.807Z,9.50
2023-03-30T02:17:42.295Z,9.22
2023-03-30T02:23:46.421Z,9.44
2023-03-30T02:29:49.067Z,9.28
2023-03-30T02:35:57.728Z,9.52
2023-03-30T02:42:08.421Z,9.84
2023-03-30T02:48:27.445Z,9.95
2023-03-30T02:54:47.892Z,10.10
2023-03-30T03:00:59.262Z,10.23
2023-03-30T03:07:02.543Z,10.27
2023-03-30T03:13:04.457Z,10.47
2023-03-30T03:19:06.328Z,10.64
2023-03-30T03:25:08.686Z,10.80
2023-03-30T03:31:11.545Z,10.79
2023-03-30T03:37:13.782Z,10.95
2023-03-30T03:43:15.974Z,10.87
2023-03-30T03:49:17.849Z,11.06
2023-03-30T03:55:19.764Z,11.30
2023-03-30T04:01:21.965Z,11.39
2023-03-30T04:07:25.573Z,11.38
2023-03-30T04:13:27.735Z,11.19
2023-03-30T04:19:31.462Z,11.51
2023-03-30T04:25:33.435Z,11.60
2023-03-30T04:31:35.937Z,11.66
2023-03-30T04:37:38.319Z,11.72
2023-03-30T04:43:40.713Z,11.70
2023-03-30T04:49:42.595Z,11.73
2023-03-30T04:55:50.126Z,11.63
2023-03-30T05:01:52.056Z,11.76
2023-03-30T05:07:54.113Z,11.53
2023-03-30T05:13:56.022Z,11.80
2023-03-30T05:19:57.973Z,11.97
2023-03-30T05:25:59.920Z,11.86
2023-03-30T05:32:02.142Z,11.86
2023-03-30T05:38:05.161Z,12.34
2023-03-30T05:44:07.636Z,12.39
2023-03-30T05:50:09.958Z,12.73
2023-03-30T05:56:11.914Z,13.01
2023-03-30T06:02:14.610Z,13.44
2023-03-30T06:08:16.664Z,13.90
2023-03-30T06:14:19.512Z,14.13
2023-03-30T06:20:21.958Z,14.49
2023-03-30T06:26:24.343Z,14.85
2023-03-30T06:32:27.064Z,15.15
2023-03-30T06:38:29.237Z,15.48
2023-03-30T06:44:31.270Z,15.45
2023-03-30T06:50:33.893Z,15.39
2023-03-30T06:56:35.944Z,15.55
2023-03-30T07:02:37.885Z,15.25
2023-03-30T07:08:40.412Z,15.11
2023-03-30T07:14:42.361Z,14.87
2023-03-30T07:20:47.453Z,14.85
2023-03-30T07:26:49.341Z,14.94
2023-03-30T07:32:51.740Z,15.01
2023-03-30T07:38:53.823Z,14.89
2023-03-30T07:44:55.772Z,15.07
2023-03-30T07:51:11.743Z,15.20
2023-03-30T07:57:13.792Z,15.18
2023-03-30T08:03:16.102Z,15.55
2023-03-30T08:09:18.433Z,15.67
2023-03-30T08:15:20.738Z,15.71
2023-03-30T08:21:25.994Z,15.65
2023-03-30T08:27:27.916Z,15.97
2023-03-30T08:33:29.825Z,16.00
2023-03-30T08:39:32.296Z,16.26
2023-03-30T08:45:42.618Z,16.12
2023-03-30T08:51:46.989Z,15.94
2023-03-30T08:57:55.900Z,16.62
2023-03-30T09:04:31.393Z,17.62
2023-03-30T09:10:47.454Z,18.00
2023-03-30T09:17:04.020Z,18.66
2023-03-30T09:23:14.200Z,19.36
2023-03-30T09:29:26.220Z,20.73
2023-03-30T09:35:41.684Z,21.56
2023-03-30T09:42:17.018Z,22.36
2023-03-30T09:48:18.923Z,24.07
2023-03-30T09:54:22.037Z,23.62
2023-03-30T10:00:33.163Z,21.80
2023-03-30T10:06:48.869Z,20.18
2023-03-30T10:12:54.776Z,19.16
2023-03-30T10:19:02.565Z,18.94
2023-03-30T10:25:17.881Z,18.92
2023-03-30T10:31:20.685Z,19.03
2023-03-30T10:37:28.162Z,18.73
2023-03-30T10:43:34.879Z,18.15
2023-03-30T10:50:15.054Z,18.16
2023-03-30T10:56:35.864Z,17.38
2023-03-30T11:02:57.464Z,17.37
2023-03-30T11:09:04.815Z,17.22
2023-03-30T11:15:36.756Z,16.75
2023-03-30T11:22:24.648Z,13.63
2023-03-30T11:28:55.565Z,12.42
2023-03-30T11:35:17.364Z,12.19
2023-03-30T11:41:31.879Z,12.34
2023-03-30T11:47:57.138Z,12.47
2023-03-30T11:54:13.752Z,12.73
2023-03-30T12:00:35.958Z,12.89
2023-03-30T12:07:00.570Z,13.29
2023-03-30T12:13:03.222Z,13.52
2023-03-30T12:19:25.683Z,13.74
2023-03-30T12:26:07.244Z,14.40
2023-03-30T12:32:29.621Z,14.34
2023-03-30T12:38:58.032Z,14.08
2023-03-30T12:45:33.953Z,13.81
2023-03-30T12:52:18.032Z,14.25
2023-03-30T12:58:24.368Z,15.09
2023-03-30T13:04:33.126Z,16.71
2023-03-30T13:10:41.198Z,16.37
2023-03-30T13:16:53.293Z,16.90
2023-03-30T13:23:09.266Z,16.96
2023-03-30T13:29:15.246Z,19.21
2023-03-30T13:35:42.041Z,17.75
2023-03-30T13:42:30.538Z,17.98
2023-03-30T13:49:07.839Z,18.33
2023-03-30T13:55:38.168Z,18.47
2023-03-30T14:01:41.789Z,17.34
2023-03-30T14:07:47.172Z,16.75
2023-03-30T14:13:52.896Z,16.59
2023-03-30T14:20:23.207Z,17.79
2023-03-30T14:26:28.981Z,18.05
2023-03-30T14:32:31.465Z,18.41
2023-03-30T14:38:39.989Z,17.53
2023-03-30T14:44:42.232Z,16.46
2023-03-30T14:50:45.564Z,16.08
2023-03-30T14:56:57.766Z,15.67
2023-03-30T15:03:01.074Z,15.84
2023-03-30T15:09:09.525Z,15.53
2023-03-30T15:15:16.650Z,15.18
2023-03-30T15:21:20.595Z,14.95
2023-03-30T15:27:24.148Z,14.75
2023-03-30T15:33:38.825Z,14.54
2023-03-30T15:39:49.263Z,14.41
2023-03-30T15:45:59.024Z,14.38
2023-03-30T15:52:08.057Z,14.13
2023-03-30T15:58:18.702Z,14.31
2023-03-30T16:04:24.194Z,15.59
2023-03-30T16:10:30.527Z,16.15
2023-03-30T16:16:33.346Z,17.64
2023-03-30T16:22:35.299Z,16.71
2023-03-30T16:28:37.564Z,15.80
2023-03-30T16:34:41.718Z,15.11
2023-03-30T16:40:58.392Z,14.92
2023-03-30T16:47:00.288Z,14.88
2023-03-30T16:53:02.315Z,15.43
2023-03-30T16:59:05.336Z,16.42
2023-03-30T17:05:07.855Z,18.65
2023-03-30T17:11:13.307Z,18.35
2023-03-30T17:17:15.262Z,16.44
2023-03-30T17:23:17.665Z,15.33
2023-03-30T17:29:19.813Z,14.74
2023-03-30T17:35:22.873Z,14.41
2023-03-30T17:41:24.830Z,14.06
2023-03-30T17:47:26.831Z,13.93
2023-03-30T17:53:28.847Z,13.96
2023-03-30T17:59:31.321Z,13.89
2023-03-30T18:05:34.740Z,13.32
2023-03-30T18:11:36.652Z,13.04
2023-03-30T18:17:38.735Z,12.70
2023-03-30T18:23:40.750Z,12.93
2023-03-30T18:29:42.708Z,12.81
2023-03-30T18:35:47.162Z,12.51
2023-03-30T18:41:49.778Z,12.41
2023-03-30T18:47:51.787Z,12.19
2023-03-30T18:53:53.699Z,12.10
2023-03-30T18:59:56.380Z,12.07
2023-03-30T19:05:58.282Z,12.07
2023-03-30T19:12:00.383Z,12.05
2023-03-30T19:18:05.036Z,11.80
2023-03-30T19:24:07.120Z,12.02
2023-03-30T19:30:16.511Z,11.85
2023-03-30T19:36:19.246Z,11.87
2023-03-30T19:42:21.199Z,11.88
2023-03-30T19:48:23.176Z,11.85
2023-03-30T19:54:25.339Z,12.10
2023-03-30T20:00:27.550Z,11.91
2023-03-30T20:06:29.878Z,11.85
2023-03-30T20:12:32.394Z,11.97
2023-03-30T20:18:35.605Z,11.83
2023-03-30T20:24:39.012Z,11.74
2023-03-30T20:30:41.183Z,11.84
2023-03-30T20:36:44.813Z,11.72
2023-03-30T20:42:48.090Z,11.68
2023-03-30T20:48:54.011Z,12.03
2023-03-30T20:54:56.339Z,11.95
2023-03-30T21:01:01.643Z,11.91
2023-03-30T21:07:03.659Z,11.75
2023-03-30T21:13:05.591Z,11.62
2023-03-30T21:19:08.911Z,11.59
2023-03-30T21:25:12.766Z,11.49
2023-03-30T21:31:15.299Z,11.67
2023-03-30T21:37:17.273Z,11.66
2023-03-30T21:43:19.186Z,11.59
2023-03-30T21:49:21.075Z,11.70
2023-03-30T21:55:22.960Z,11.74
2023-03-30T22:01:25.598Z,11.81
2023-03-30T22:07:27.534Z,11.74
2023-03-30T22:13:29.720Z,11.87
2023-03-30T22:19:31.907Z,11.93
2023-03-30T22:25:33.886Z,11.98
2023-03-30T22:31:38.000Z,12.02
2023-03-30T22:37:39.893Z,12.06
2023-03-30T22:43:41.985Z,12.02
2023-03-30T22:49:43.945Z,12.00
2023-03-30T22:55:49.063Z,12.08
2023-03-30T23:01:51.180Z,12.24
2023-03-30T23:07:53.503Z,12.13
2023-03-30T23:13:55.984Z,12.06
2023-03-30T23:19:58.200Z,11.98
2023-03-30T23:26:02.903Z,12.05
2023-03-30T23:32:05.953Z,11.69
2023-03-30T23:38:10.053Z,11.52
2023-03-30T23:44:12.069Z,11.18
2023-03-30T23:50:15.291Z,11.15
2023-03-30T23:56:17.922Z,11.22
